createdAt,value
2022-08-30T04:01:04.744Z,1.80
2022-08-30T04:03:33.006Z,1.20
2022-08-30T04:06:02.758Z,1.30
2022-08-30T04:08:31.501Z,1.40
2022-08-30T04:11:03.309Z,1.20
2022-08-30T04:13:34.488Z,1.00
2022-08-30T04:16:06.957Z,0.60
2022-08-30T04:18:35.998Z,0.90
2022-08-30T04:21:05.778Z,1.10
2022-08-30T04:23:34.978Z,1.10
2022-08-30T04:26:03.928Z,0.90
2022-08-30T04:28:34.753Z,0.90
2022-08-30T04:31:12.232Z,0.80
2022-08-30T04:33:41.901Z,1.10
2022-08-30T04:36:14.298Z,1.60
2022-08-30T04:38:43.646Z,1.50
2022-08-30T04:41:17.020Z,1.40
2022-08-30T04:43:51.393Z,0.90
2022-08-30T04:46:21.364Z,1.00
2022-08-30T04:48:50.576Z,0.80
2022-08-30T04:51:19.829Z,0.80
2022-08-30T04:53:48.772Z,0.80
2022-08-30T04:56:22.853Z,0.60
2022-08-30T04:58:55.265Z,1.00
2022-08-30T05:01:26.878Z,0.60
2022-08-30T05:03:57.870Z,1.40
2022-08-30T05:06:31.660Z,0.70
2022-08-30T05:09:04.098Z,1.00
2022-08-30T05:11:32.670Z,1.20
2022-08-30T05:14:01.537Z,0.80
2022-08-30T05:16:30.637Z,1.30
2022-08-30T05:19:04.669Z,0.90
2022-08-30T05:21:33.725Z,1.10
2022-08-30T05:24:03.240Z,1.00
2022-08-30T05:26:34.331Z,0.80
2022-08-30T05:29:03.073Z,0.90
2022-08-30T05:31:35.897Z,0.90
2022-08-30T05:34:06.187Z,0.90
2022-08-30T05:36:37.044Z,0.70
2022-08-30T05:39:09.031Z,1.40
2022-08-30T05:41:38.500Z,1.50
2022-08-30T05:44:09.978Z,1.10
2022-08-30T05:46:40.387Z,1.00
2022-08-30T05:49:10.390Z,0.90
2022-08-30T05:51:43.083Z,1.10
2022-08-30T05:54:15.409Z,0.50
2022-08-30T05:56:46.479Z,0.90
2022-08-30T05:59:16.561Z,0.80
2022-08-30T06:01:48.079Z,0.90
2022-08-30T06:04:17.114Z,0.30
2022-08-30T06:06:46.063Z,0.40
2022-08-30T06:09:24.585Z,0.60
2022-08-30T06:11:53.424Z,0.50
2022-08-30T06:14:22.470Z,1.00
2022-08-30T06:17:14.201Z,0.50
2022-08-30T06:20:22.790Z,0.70
2022-08-30T06:23:06.564Z,0.50
2022-08-30T06:25:41.953Z,0.40
2022-08-30T06:28:12.842Z,0.50
2022-08-30T06:30:43.371Z,0.70
2022-08-30T06:33:12.736Z,0.30
2022-08-30T06:35:56.717Z,0.60
2022-08-30T06:38:28.993Z,0.60
2022-08-30T06:40:57.906Z,0.40
2022-08-30T06:43:27.615Z,0.30
2022-08-30T06:45:57.049Z,0.70
2022-08-30T06:48:26.955Z,0.70
2022-08-30T06:50:56.196Z,0.40
2022-08-30T06:53:26.582Z,0.60
2022-08-30T06:56:07.890Z,0.90
2022-08-30T06:58:39.514Z,0.40
2022-08-30T07:01:15.597Z,0.40
2022-08-30T07:03:45.256Z,0.20
2022-08-30T07:06:15.077Z,0.30
2022-08-30T07:08:44.369Z,0.30
2022-08-30T07:11:12.833Z,0.20
2022-08-30T07:13:42.230Z,0.40
2022-08-30T07:16:15.394Z,0.70
2022-08-30T07:18:57.011Z,0.20
2022-08-30T07:21:35.479Z,0.20
2022-08-30T07:24:05.352Z,0.10
2022-08-30T07:26:41.595Z,0.20
2022-08-30T07:29:11.417Z,0.20
2022-08-30T07:31:40.796Z,0.10
2022-08-30T07:34:10.618Z,0.30
2022-08-30T07:36:40.763Z,0.10
2022-08-30T07:39:10.676Z,0.20
2022-08-30T07:41:42.762Z,0.10
2022-08-30T07:44:12.685Z,0.10
2022-08-30T07:46:41.809Z,0.10
2022-08-30T07:49:12.413Z,0.40
2022-08-30T07:51:42.396Z,0.20
2022-08-30T07:54:11.955Z,0.20
2022-08-30T07:56:40.875Z,0.30
2022-08-30T07:59:10.097Z,0.20
2022-08-30T08:01:39.449Z,0.10
2022-08-30T08:04:08.988Z,0.20
2022-08-30T08:09:10.813Z,0.40
2022-08-30T08:11:42.157Z,0.10
2022-08-30T08:14:12.493Z,1.00
2022-08-30T08:16:45.202Z,0.10
2022-08-30T08:19:14.825Z,0.20
2022-08-30T08:21:44.040Z,0.20
2022-08-30T08:24:13.708Z,0.30
2022-08-30T08:26:45.363Z,0.20
2022-08-30T08:29:14.600Z,0.20
2022-08-30T08:31:43.913Z,0.20
2022-08-30T08:34:13.586Z,0.20
2022-08-30T08:36:42.531Z,0.30
2022-08-30T08:39:11.908Z,0.30
2022-08-30T08:41:53.455Z,0.70
2022-08-30T08:44:38.167Z,0.30
2022-08-30T08:47:46.002Z,0.20
2022-08-30T08:50:21.030Z,0.20
2022-08-30T08:53:13.358Z,0.30
2022-08-30T08:55:53.313Z,0.30
2022-08-30T08:58:30.945Z,0.20
2022-08-30T09:01:00.850Z,0.60
2022-08-30T09:03:30.736Z,0.30
2022-08-30T09:06:05.003Z,0.30
2022-08-30T09:08:36.242Z,0.50
2022-08-30T09:11:11.613Z,0.20
2022-08-30T09:13:41.076Z,0.20
2022-08-30T09:16:13.916Z,0.30
2022-08-30T09:18:55.057Z,0.30
2022-08-30T09:21:29.453Z,0.40
2022-08-30T09:24:12.222Z,0.30
2022-08-30T09:26:41.639Z,0.20
2022-08-30T09:29:18.721Z,0.30
2022-08-30T09:32:22.558Z,1.40
2022-08-30T09:34:44.497Z,0.40
2022-08-30T09:37:34.848Z,0.30
2022-08-30T09:40:12.608Z,0.20
2022-08-30T09:42:42.018Z,0.30
2022-08-30T09:45:20.961Z,0.40
2022-08-30T09:47:50.171Z,0.20
2022-08-30T09:50:24.371Z,0.90
2022-08-30T09:52:55.593Z,0.40
2022-08-30T09:55:24.963Z,0.40
2022-08-30T09:58:28.007Z,0.40
2022-08-30T10:01:28.954Z,0.60
2022-08-30T10:04:27.186Z,0.30
2022-08-30T10:07:20.391Z,0.30
2022-08-30T10:10:24.931Z,0.40
2022-08-30T10:13:26.022Z,0.30
2022-08-30T10:16:38.886Z,0.60
2022-08-30T10:19:19.529Z,0.60
2022-08-30T10:21:56.663Z,0.50
2022-08-30T10:24:36.460Z,0.40
2022-08-30T10:27:18.109Z,0.50
2022-08-30T10:29:52.039Z,0.60
2022-08-30T10:35:23.805Z,0.30
2022-08-30T10:38:23.926Z,0.60
2022-08-30T10:41:28.687Z,0.40
2022-08-30T10:44:00.764Z,0.50
2022-08-30T10:46:53.979Z,0.50
2022-08-30T10:49:26.569Z,0.50
2022-08-30T10:52:25.605Z,0.50
2022-08-30T10:55:00.663Z,0.50
2022-08-30T10:57:29.737Z,0.50
2022-08-30T11:00:05.879Z,0.70
2022-08-30T11:03:26.544Z,0.40
2022-08-30T11:06:10.657Z,0.60
2022-08-30T11:09:09.922Z,0.60
2022-08-30T11:12:04.145Z,0.70
2022-08-30T11:14:32.777Z,0.60
2022-08-30T11:17:03.072Z,0.50
2022-08-30T11:19:41.882Z,0.30
2022-08-30T11:22:15.696Z,0.50
2022-08-30T11:25:09.710Z,0.40
2022-08-30T11:27:53.390Z,0.60
2022-08-30T11:30:27.032Z,0.40
2022-08-30T11:33:24.816Z,0.50
2022-08-30T11:35:54.360Z,0.50
2022-08-30T11:38:26.221Z,0.80
2022-08-30T11:40:55.199Z,0.60
2022-08-30T11:43:37.337Z,0.30
2022-08-30T11:46:27.303Z,0.40
2022-08-30T11:49:06.301Z,0.50
2022-08-30T11:52:08.205Z,0.60
2022-08-30T11:55:06.951Z,0.50
2022-08-30T11:57:46.111Z,0.60
2022-08-30T12:00:41.528Z,0.70
2022-08-30T12:03:16.855Z,0.40
2022-08-30T12:06:03.041Z,0.50
2022-08-30T12:08:37.230Z,0.60
2022-08-30T12:11:07.250Z,0.50
2022-08-30T12:13:39.833Z,0.30
2022-08-30T12:19:02.010Z,0.40
2022-08-30T12:21:43.874Z,0.30
2022-08-30T12:24:40.940Z,0.70
2022-08-30T12:27:42.241Z,0.30
2022-08-30T12:30:11.977Z,0.40
2022-08-30T12:32:50.803Z,0.60
2022-08-30T12:35:27.869Z,0.30
2022-08-30T12:38:06.398Z,0.40
2022-08-30T12:40:35.662Z,1.00
2022-08-30T12:43:17.769Z,0.90
2022-08-30T12:45:50.934Z,0.40
2022-08-30T12:48:21.952Z,0.60
2022-08-30T12:50:58.754Z,0.50
2022-08-30T12:53:39.392Z,1.70
2022-08-30T12:56:12.472Z,0.90
2022-08-30T12:58:44.055Z,0.40
2022-08-30T13:01:31.713Z,0.60
2022-08-30T13:04:28.337Z,0.60
2022-08-30T13:07:00.130Z,0.70
2022-08-30T13:09:35.296Z,0.50
2022-08-30T13:12:39.033Z,0.50
2022-08-30T13:15:28.222Z,0.80
2022-08-30T13:18:32.198Z,0.80
2022-08-30T13:21:31.295Z,0.40
2022-08-30T13:24:04.555Z,0.60
2022-08-30T13:26:37.659Z,1.00
2022-08-30T13:29:23.231Z,0.70
2022-08-30T13:31:55.591Z,0.40
2022-08-30T13:34:23.856Z,0.50
2022-08-30T13:36:58.611Z,0.50
2022-08-30T13:39:28.094Z,1.40
2022-08-30T13:44:49.830Z,0.50
2022-08-30T13:47:37.099Z,0.70
2022-08-30T13:50:06.866Z,0.70
2022-08-30T13:52:36.531Z,0.90
2022-08-30T13:55:06.119Z,1.00
2022-08-30T14:00:26.129Z,1.20
2022-08-30T14:02:57.517Z,0.60
2022-08-30T14:05:50.997Z,1.30
2022-08-30T14:11:20.992Z,0.40
2022-08-30T14:16:45.193Z,0.40
2022-08-30T14:19:16.266Z,0.60
2022-08-30T14:21:46.603Z,0.50
2022-08-30T14:26:52.724Z,0.70
2022-08-30T14:29:30.648Z,0.70
2022-08-30T14:32:01.022Z,1.20
2022-08-30T14:34:30.549Z,0.70
2022-08-30T14:37:02.245Z,0.60
2022-08-30T14:39:31.860Z,0.90
2022-08-30T14:42:03.421Z,0.80
2022-08-30T14:44:54.731Z,1.00
2022-08-30T14:47:26.875Z,0.90
2022-08-30T14:50:01.406Z,0.50
2022-08-30T14:52:31.598Z,0.70
2022-08-30T14:55:08.458Z,1.50
2022-08-30T14:57:40.319Z,0.90
2022-08-30T15:00:32.340Z,1.10
2022-08-30T15:03:05.592Z,0.50
2022-08-30T15:05:34.146Z,0.50
2022-08-30T15:08:05.020Z,0.70
2022-08-30T15:10:36.981Z,0.50
2022-08-30T15:13:08.296Z,0.80
2022-08-30T15:15:38.804Z,0.60
2022-08-30T15:18:10.724Z,1.00
2022-08-30T15:20:48.012Z,0.50
2022-08-30T15:23:17.710Z,0.60
2022-08-30T15:25:51.856Z,0.30
2022-08-30T15:28:21.828Z,1.70
2022-08-30T15:30:50.544Z,0.70
2022-08-30T15:33:20.305Z,0.60
2022-08-30T15:35:49.825Z,0.90
2022-08-30T15:38:21.887Z,0.70
2022-08-30T15:40:51.324Z,0.90
2022-08-30T15:43:21.119Z,0.70
2022-08-30T15:45:49.730Z,0.60
2022-08-30T15:48:18.615Z,0.60
2022-08-30T15:50:47.633Z,0.40
2022-08-30T15:53:15.935Z,0.50
2022-08-30T15:55:47.287Z,0.80
2022-08-30T15:58:19.863Z,0.80
2022-08-30T16:00:49.681Z,0.60
2022-08-30T16:03:19.161Z,0.80
2022-08-30T16:05:49.125Z,1.10
2022-08-30T16:08:19.697Z,1.80
2022-08-30T16:10:52.013Z,6.40
2022-08-30T16:13:21.550Z,1.90
2022-08-30T16:15:50.532Z,1.30
2022-08-30T16:18:19.950Z,2.00
2022-08-30T16:20:48.943Z,3.90
2022-08-30T16:23:20.090Z,1.70
2022-08-30T16:25:49.608Z,1.00
2022-08-30T16:28:20.835Z,2.30
2022-08-30T16:30:50.304Z,2.20
2022-08-30T16:33:20.499Z,3.30
2022-08-30T16:35:56.187Z,3.20
2022-08-30T16:38:26.746Z,2.80
2022-08-30T16:40:56.567Z,3.40
2022-08-30T16:43:25.873Z,4.30
2022-08-30T16:45:55.218Z,3.60
2022-08-30T16:48:23.952Z,7.90
2022-08-30T16:50:53.114Z,11.10
2022-08-30T16:53:22.118Z,14.60
2022-08-30T16:55:51.856Z,8.30
2022-08-30T16:58:22.185Z,5.30
2022-08-30T17:00:54.288Z,7.20
2022-08-30T17:03:23.978Z,2.10
2022-08-30T17:05:52.406Z,1.70
2022-08-30T17:08:26.720Z,2.20
2022-08-30T17:10:56.178Z,1.80
2022-08-30T17:13:25.325Z,1.40
2022-08-30T17:15:54.135Z,1.60
2022-08-30T17:18:23.126Z,2.70
2022-08-30T17:20:52.210Z,1.80
2022-08-30T17:23:20.982Z,2.80
2022-08-30T17:25:50.999Z,2.50
2022-08-30T17:28:20.122Z,1.60
2022-08-30T17:30:51.159Z,2.80
2022-08-30T17:33:19.773Z,2.40
2022-08-30T17:35:48.427Z,3.00
2022-08-30T17:38:17.508Z,4.10
2022-08-30T17:40:47.592Z,3.50
2022-08-30T17:43:16.734Z,2.40
2022-08-30T17:45:46.635Z,4.00
2022-08-30T17:48:15.737Z,2.00
2022-08-30T17:50:44.668Z,3.00
2022-08-30T17:53:15.783Z,3.10
2022-08-30T17:55:50.913Z,1.90
2022-08-30T17:58:20.133Z,4.70
2022-08-30T18:00:51.881Z,16.40
2022-08-30T18:03:21.215Z,10.20
2022-08-30T18:05:50.655Z,11.40
2022-08-30T18:08:19.684Z,6.60
2022-08-30T18:10:48.951Z,5.50
2022-08-30T18:13:18.822Z,5.90
2022-08-30T18:15:50.725Z,4.00
2022-08-30T18:18:20.470Z,1.40
2022-08-30T18:20:49.103Z,1.40
2022-08-30T18:23:18.322Z,1.60
2022-08-30T18:25:58.097Z,1.10
2022-08-30T18:28:27.306Z,1.80
2022-08-30T18:30:57.174Z,2.90
2022-08-30T18:33:28.522Z,1.70
2022-08-30T18:35:57.527Z,1.00
2022-08-30T18:38:27.907Z,1.40
2022-08-30T18:41:06.536Z,1.50
2022-08-30T18:43:36.289Z,1.60
2022-08-30T18:46:09.370Z,1.70
2022-08-30T18:51:17.617Z,3.10
2022-08-30T18:53:47.452Z,1.80
2022-08-30T18:56:17.025Z,1.50
2022-08-30T18:58:47.991Z,2.10
2022-08-30T19:01:22.148Z,2.40
2022-08-30T19:03:52.316Z,1.90
2022-08-30T19:06:21.497Z,1.90
2022-08-30T19:08:49.841Z,2.10
2022-08-30T19:11:19.482Z,2.20
2022-08-30T19:13:48.567Z,1.90
2022-08-30T19:16:19.917Z,1.10
2022-08-30T19:18:48.718Z,1.50
2022-08-30T19:21:17.175Z,1.40
2022-08-30T19:23:54.412Z,1.40
2022-08-30T19:26:23.580Z,1.00
2022-08-30T19:28:56.028Z,1.80
2022-08-30T19:31:24.218Z,1.30
2022-08-30T19:33:52.410Z,1.20
2022-08-30T19:36:20.987Z,1.00
2022-08-30T19:38:49.685Z,1.40
2022-08-30T19:41:17.948Z,0.90
2022-08-30T19:43:47.260Z,1.10
2022-08-30T19:46:16.347Z,1.00
2022-08-30T19:48:46.176Z,1.30
2022-08-30T19:51:16.045Z,1.00
2022-08-30T19:53:44.972Z,0.90
2022-08-30T19:56:13.702Z,1.00
2022-08-30T19:58:42.101Z,1.30
2022-08-30T20:01:12.651Z,1.00
2022-08-30T20:03:42.130Z,0.80
2022-08-30T20:06:10.990Z,0.70
2022-08-30T20:08:40.015Z,0.80
2022-08-30T20:11:12.732Z,1.00
2022-08-30T20:13:42.333Z,1.20
2022-08-30T20:16:13.014Z,0.90
2022-08-30T20:18:43.375Z,1.50
2022-08-30T20:21:15.827Z,0.90
2022-08-30T20:23:58.582Z,0.80
2022-08-30T20:26:34.254Z,1.20
2022-08-30T20:29:06.328Z,1.10
2022-08-30T20:31:36.010Z,1.30
2022-08-30T20:34:05.240Z,1.20
2022-08-30T20:36:34.279Z,1.10
2022-08-30T20:39:04.519Z,0.90
2022-08-30T20:41:33.019Z,1.80
2022-08-30T20:44:02.165Z,1.20
2022-08-30T20:46:34.180Z,1.20
2022-08-30T20:49:04.494Z,1.40
2022-08-30T20:51:32.967Z,1.20
2022-08-30T20:54:03.835Z,1.20
2022-08-30T20:56:34.480Z,1.40
2022-08-30T20:59:04.651Z,1.10
2022-08-30T21:01:36.817Z,0.90
2022-08-30T21:04:08.684Z,1.10
2022-08-30T21:06:38.246Z,0.70
2022-08-30T21:09:09.294Z,0.90
2022-08-30T21:11:39.215Z,0.80
2022-08-30T21:14:13.986Z,1.70
2022-08-30T21:16:43.225Z,1.30
2022-08-30T21:19:11.972Z,1.00
2022-08-30T21:21:40.596Z,0.80
2022-08-30T21:24:10.673Z,1.00
2022-08-30T21:26:44.004Z,0.80
2022-08-30T21:29:12.836Z,1.20
2022-08-30T21:31:41.856Z,0.70
2022-08-30T21:34:11.298Z,0.70
2022-08-30T21:36:46.817Z,0.80
2022-08-30T21:39:28.604Z,0.80
2022-08-30T21:41:57.833Z,0.90
2022-08-30T21:44:28.513Z,1.10
2022-08-30T21:46:57.565Z,1.20
2022-08-30T21:49:26.726Z,0.80
2022-08-30T21:51:56.871Z,0.90
2022-08-30T21:54:28.339Z,1.10
2022-08-30T21:57:02.367Z,1.00
2022-08-30T21:59:31.891Z,1.00
2022-08-30T22:02:01.776Z,0.90
2022-08-30T22:04:31.057Z,1.20
2022-08-30T22:06:59.553Z,1.40
2022-08-30T22:09:31.082Z,1.00
2022-08-30T22:12:00.255Z,0.80
2022-08-30T22:14:29.015Z,1.10
2022-08-30T22:16:57.880Z,1.40
2022-08-30T22:19:26.301Z,1.40
2022-08-30T22:22:00.977Z,1.00
2022-08-30T22:24:32.858Z,0.90
2022-08-30T22:27:03.859Z,1.50
2022-08-30T22:29:33.331Z,1.30
2022-08-30T22:32:02.996Z,1.90
2022-08-30T22:34:32.535Z,1.20
2022-08-30T22:37:01.768Z,1.80
2022-08-30T22:39:31.112Z,1.40
2022-08-30T22:42:00.391Z,1.00
2022-08-30T22:44:29.390Z,1.70
2022-08-30T22:46:58.312Z,1.70
2022-08-30T22:49:27.172Z,1.30
2022-08-30T22:51:56.279Z,1.40
2022-08-30T22:54:25.542Z,1.50
2022-08-30T22:56:54.781Z,1.20
2022-08-30T22:59:32.289Z,1.60
